Time;durP1;ratioP1;P1;durP2;ratioP2;P2;SDS_P1;SDS_P2;PMS_P1;PMS_P2;Temp;Humidity;BMP_temperature;BMP_pressure;BME280_temperature;BME280_humidity;BME280_pressure;Samples;Min_cycle;Max_cycle;Signal;HPM_P1;HPM_P2
2022/11/15 00:00:37;;;;;;;22.25;19.85;;;3.90;99.90;;;;;;4223432;28;20055;-87
2022/11/15 00:02:57;;;;;;;25.60;22.73;;;4.00;99.90;;;;;;4232478;28;20043;-88
2022/11/15 00:05:16;;;;;;;29.25;25.25;;;3.90;99.90;;;;;;4219532;28;20089;-88
2022/11/15 00:07:36;;;;;;;90.32;26.30;;;3.90;99.90;;;;;;4233937;28;20039;-88
2022/11/15 00:10:15;;;;;;;115.88;26.80;;;3.60;99.90;;;;;;4228135;28;20038;-88
2022/11/15 00:12:35;;;;;;;159.63;28.85;;;3.40;99.90;;;;;;4229289;28;20039;-88
2022/11/15 00:14:54;;;;;;;236.45;36.00;;;3.20;99.90;;;;;;4226874;28;20077;-88
2022/11/15 00:17:15;;;;;;;231.88;39.42;;;3.10;99.90;;;;;;4229002;28;20388;-88
2022/11/15 00:19:35;;;;;;;107.82;37.65;;;3.00;99.90;;;;;;4233759;28;20047;-88
2022/11/15 00:21:54;;;;;;;167.65;32.55;;;3.10;99.90;;;;;;4229908;28;20116;-87
2022/11/15 00:24:13;;;;;;;121.93;33.80;;;3.00;99.90;;;;;;4228548;28;20042;-85
2022/11/15 00:26:33;;;;;;;83.82;30.20;;;3.00;99.90;;;;;;4228170;28;20086;-88
2022/11/15 00:28:53;;;;;;;59.95;26.63;;;3.20;99.90;;;;;;4231516;28;20039;-88
2022/11/15 00:31:14;;;;;;;36.80;26.83;;;3.20;99.90;;;;;;4231242;28;20243;-88
2022/11/15 00:33:34;;;;;;;37.65;28.20;;;3.20;99.90;;;;;;4230063;28;20054;-88
2022/11/15 00:36:11;;;;;;;30.85;28.30;;;3.20;99.90;;;;;;4230422;28;20235;-88
2022/11/15 00:38:37;;;;;;;31.75;29.27;;;3.40;99.90;;;;;;4233513;28;20038;-88
2022/11/15 00:40:56;;;;;;;25.15;23.17;;;3.50;99.90;;;;;;4203226;28;20048;-88
2022/11/15 00:43:16;;;;;;;20.55;18.83;;;3.60;99.90;;;;;;4232575;28;20108;-88
2022/11/15 00:45:36;;;;;;;21.65;19.55;;;3.60;99.90;;;;;;4232295;28;20051;-88
2022/11/15 00:47:56;;;;;;;22.52;20.83;;;3.70;99.90;;;;;;4231215;28;20107;-88
2022/11/15 00:50:16;;;;;;;21.20;19.33;;;3.70;99.90;;;;;;4236153;28;20453;-87
2022/11/15 00:52:36;;;;;;;18.65;17.20;;;3.90;99.90;;;;;;4226169;28;20074;-88
2022/11/15 00:54:56;;;;;;;18.52;17.02;;;3.90;99.90;;;;;;4233710;28;20196;-87
2022/11/15 00:57:16;;;;;;;22.20;20.35;;;4.10;99.90;;;;;;4231933;28;20043;-86
2022/11/15 00:59:35;;;;;;;21.30;19.40;;;3.90;99.90;;;;;;4233105;28;20078;-88
2022/11/15 01:01:55;;;;;;;21.05;19.23;;;3.90;99.90;;;;;;4225672;28;20081;-87
2022/11/15 01:04:14;;;;;;;22.73;20.45;;;3.90;99.90;;;;;;4226626;28;20366;-87
2022/11/15 01:06:34;;;;;;;18.38;16.75;;;3.80;99.90;;;;;;4228070;28;20106;-88
2022/11/15 01:08:54;;;;;;;20.38;18.52;;;3.90;99.90;;;;;;4233467;28;20050;-88
2022/11/15 01:11:14;;;;;;;18.27;16.70;;;3.90;99.90;;;;;;4230142;28;20054;-87
2022/11/15 01:13:35;;;;;;;21.33;19.33;;;4.00;99.90;;;;;;4229336;28;20206;-88
2022/11/15 01:15:55;;;;;;;21.63;19.73;;;4.00;99.90;;;;;;4230310;28;20058;-88
2022/11/15 01:18:15;;;;;;;22.08;20.00;;;3.90;99.90;;;;;;4234053;28;20139;-88
2022/11/15 01:20:38;;;;;;;22.88;20.58;;;3.90;99.90;;;;;;4232063;28;20089;-88
2022/11/15 01:22:58;;;;;;;24.10;21.55;;;3.90;99.90;;;;;;4228930;28;20168;-88
2022/11/15 01:25:18;;;;;;;22.88;20.80;;;3.90;99.90;;;;;;4227077;28;20097;-88
2022/11/15 01:27:38;;;;;;;31.80;23.17;;;3.90;99.90;;;;;;4231633;28;20174;-88
2022/11/15 01:29:58;;;;;;;34.88;24.42;;;3.90;99.90;;;;;;4229172;28;20259;-88
2022/11/15 01:32:17;;;;;;;24.92;22.75;;;3.90;99.90;;;;;;4227781;28;20232;-88
2022/11/15 01:34:37;;;;;;;24.88;22.73;;;3.80;99.90;;;;;;4226023;28;20085;-88
2022/11/15 01:36:57;;;;;;;24.00;21.95;;;3.90;99.90;;;;;;4231363;28;20055;-87
2022/11/15 01:39:17;;;;;;;24.70;22.08;;;4.00;99.90;;;;;;4231014;28;20051;-88
2022/11/15 01:41:37;;;;;;;22.77;19.85;;;4.10;99.90;;;;;;4214621;28;20051;-88
2022/11/15 01:44:35;;;;;;;19.45;17.77;;;4.00;99.90;;;;;;4226405;28;20066;-86
2022/11/15 01:46:56;;;;;;;21.92;20.08;;;4.10;99.90;;;;;;4213130;28;20060;-88
2022/11/15 01:49:19;;;;;;;22.67;20.42;;;4.10;99.90;;;;;;4228594;28;20093;-88
2022/11/15 01:51:39;;;;;;;22.85;20.95;;;4.10;99.90;;;;;;4224744;28;20058;-88
2022/11/15 01:54:05;;;;;;;21.58;19.75;;;4.20;99.90;;;;;;4227086;28;20050;-88
2022/11/15 01:56:29;;;;;;;22.08;20.05;;;4.20;99.90;;;;;;4232010;28;20064;-88
2022/11/15 01:58:51;;;;;;;22.77;20.90;;;4.10;99.90;;;;;;4233529;28;20115;-88
2022/11/15 02:01:12;;;;;;;16.65;15.60;;;4.20;99.90;;;;;;4232865;28;20043;-87
2022/11/15 02:03:44;;;;;;;15.68;14.77;;;4.10;99.90;;;;;;4234601;28;20061;-88
2022/11/15 02:06:05;;;;;;;17.52;16.38;;;4.10;99.90;;;;;;4228120;28;20134;-88
2022/11/15 02:08:25;;;;;;;14.90;14.02;;;4.10;99.90;;;;;;4228000;28;20038;-88
2022/11/15 02:10:48;;;;;;;13.00;12.15;;;4.20;99.90;;;;;;4235247;28;20047;-87
2022/11/15 02:13:08;;;;;;;11.90;11.35;;;4.20;99.90;;;;;;4233257;28;20085;-88
2022/11/15 02:15:38;;;;;;;12.73;12.23;;;4.20;99.90;;;;;;4227333;28;20419;-88
2022/11/15 02:18:27;;;;;;;12.57;12.00;;;4.30;99.90;;;;;;4224487;28;20038;-87
2022/11/15 02:20:55;;;;;;;11.95;11.35;;;4.30;99.90;;;;;;4227098;28;20050;-87
2022/11/15 02:23:31;;;;;;;12.63;11.80;;;4.40;99.90;;;;;;4214836;28;20047;-87
2022/11/15 02:26:14;;;;;;;12.57;11.77;;;4.40;99.90;;;;;;4227076;28;20043;-88
2022/11/15 02:28:42;;;;;;;13.50;12.70;;;4.40;99.90;;;;;;4226395;28;20369;-88
2022/11/15 02:31:20;;;;;;;16.65;15.45;;;4.40;99.90;;;;;;4228749;28;20074;-87
2022/11/15 02:33:57;;;;;;;16.02;14.85;;;4.30;99.90;;;;;;4233518;28;20389;-87
2022/11/15 02:36:29;;;;;;;16.13;14.88;;;4.30;99.90;;;;;;4231125;28;20042;-88
2022/11/15 02:38:58;;;;;;;14.30;13.33;;;4.30;99.90;;;;;;4228207;28;20400;-88
2022/11/15 02:41:36;;;;;;;17.95;16.77;;;4.30;99.90;;;;;;4225052;28;20377;-87
2022/11/15 02:44:15;;;;;;;17.60;16.50;;;4.30;99.90;;;;;;4226213;28;20261;-87
2022/11/15 02:49:23;;;;;;;18.13;17.02;;;4.30;99.90;;;;;;4234093;28;20125;-87
2022/11/15 02:51:46;;;;;;;15.43;14.55;;;4.30;99.90;;;;;;4226583;28;20247;-87
2022/11/15 02:54:06;;;;;;;15.02;14.25;;;4.30;99.90;;;;;;4226765;28;20050;-87
2022/11/15 02:56:26;;;;;;;15.38;14.43;;;4.30;99.90;;;;;;4215230;28;20062;-88
2022/11/15 02:59:07;;;;;;;16.75;15.60;;;4.30;99.90;;;;;;4228955;28;20047;-87
2022/11/15 03:01:39;;;;;;;14.90;14.00;;;4.30;99.90;;;;;;4230387;28;20232;-87
2022/11/15 03:04:26;;;;;;;13.98;13.35;;;4.30;99.90;;;;;;4227626;28;20046;-86
2022/11/15 03:07:01;;;;;;;15.32;14.27;;;4.30;99.90;;;;;;4225181;28;20086;-87
2022/11/15 03:09:40;;;;;;;14.73;13.57;;;4.30;99.90;;;;;;4231606;28;20400;-88
2022/11/15 03:12:11;;;;;;;13.07;12.38;;;4.40;99.90;;;;;;4228043;28;20066;-87
2022/11/15 03:14:40;;;;;;;12.20;11.60;;;4.50;99.90;;;;;;4228077;28;20051;-88
2022/11/15 03:17:18;;;;;;;11.15;10.70;;;4.60;99.90;;;;;;4226596;28;20231;-88
2022/11/15 03:19:46;;;;;;;11.95;11.27;;;4.70;99.90;;;;;;4224438;28;20077;-88
2022/11/15 03:22:11;;;;;;;13.02;12.10;;;4.60;99.90;;;;;;4227570;28;20111;-88
2022/11/15 03:24:34;;;;;;;11.60;11.02;;;4.70;99.90;;;;;;4227117;28;20035;-88
2022/11/15 03:26:57;;;;;;;14.18;13.07;;;4.60;99.90;;;;;;4229462;28;20047;-88
2022/11/15 03:29:22;;;;;;;14.90;14.00;;;4.60;99.90;;;;;;4214562;28;20121;-88
2022/11/15 03:31:48;;;;;;;16.10;15.00;;;4.50;99.90;;;;;;4228563;28;20039;-87
2022/11/15 03:34:29;;;;;;;16.23;15.15;;;4.40;99.90;;;;;;4228262;28;20081;-87
2022/11/15 03:36:51;;;;;;;14.35;13.57;;;4.50;99.90;;;;;;4228028;28;20235;-88
2022/11/15 03:39:13;;;;;;;15.73;15.05;;;4.50;99.90;;;;;;4216511;28;20052;-87
2022/11/15 03:41:58;;;;;;;17.58;16.33;;;4.40;99.90;;;;;;4228567;28;20085;-87
2022/11/15 03:44:33;;;;;;;17.52;16.17;;;4.50;99.90;;;;;;4229720;28;20105;-87
2022/11/15 03:47:11;;;;;;;15.13;14.38;;;4.50;99.90;;;;;;4229844;28;20357;-88
2022/11/15 03:49:36;;;;;;;16.02;14.90;;;4.50;99.90;;;;;;4231538;28;20115;-87
2022/11/15 03:52:00;;;;;;;14.52;13.73;;;4.50;99.90;;;;;;4215123;28;20370;-88
2022/11/15 03:54:20;;;;;;;14.45;13.77;;;4.50;99.90;;;;;;4229915;28;20366;-87
2022/11/15 03:56:40;;;;;;;14.75;13.73;;;4.60;99.90;;;;;;4217544;28;20083;-87
2022/11/15 03:59:00;;;;;;;15.00;14.02;;;4.60;99.90;;;;;;4232788;28;20088;-88
2022/11/15 04:01:20;;;;;;;15.13;13.88;;;4.50;99.90;;;;;;4229944;28;20138;-87
2022/11/15 04:03:40;;;;;;;14.10;13.20;;;4.60;99.90;;;;;;4228375;28;20119;-88
2022/11/15 04:06:00;;;;;;;13.98;12.82;;;4.70;99.90;;;;;;4233079;28;20116;-87
2022/11/15 04:08:20;;;;;;;14.52;13.57;;;4.70;99.90;;;;;;4228855;28;20089;-87
2022/11/15 04:10:39;;;;;;;11.63;10.98;;;4.80;99.90;;;;;;4228288;28;20078;-88
2022/11/15 04:12:59;;;;;;;12.68;11.95;;;4.80;99.90;;;;;;4223188;28;20050;-88
2022/11/15 04:15:21;;;;;;;13.57;12.65;;;4.90;99.90;;;;;;4231840;28;20099;-87
2022/11/15 04:17:47;;;;;;;13.18;12.55;;;4.90;99.90;;;;;;4233395;28;20035;-87
2022/11/15 04:25:26;;;;;;;13.43;12.73;;;4.90;99.90;;;;;;4234141;28;20119;-87
2022/11/15 04:27:51;;;;;;;13.65;12.85;;;4.80;99.90;;;;;;4233522;28;20039;-88
2022/11/15 04:30:11;;;;;;;13.30;12.45;;;4.80;99.90;;;;;;4233290;28;20059;-88
2022/11/15 04:32:31;;;;;;;15.43;14.38;;;4.90;99.90;;;;;;4227954;28;20047;-87
2022/11/15 04:34:51;;;;;;;14.23;13.30;;;4.80;99.90;;;;;;4231610;28;20059;-87
2022/11/15 04:37:13;;;;;;;15.25;14.30;;;4.70;99.90;;;;;;4233441;28;20043;-87
2022/11/15 04:39:33;;;;;;;15.95;14.88;;;4.70;99.90;;;;;;4237331;28;20099;-88
2022/11/15 04:41:53;;;;;;;15.43;14.43;;;4.70;99.90;;;;;;4229567;28;20047;-87
2022/11/15 04:44:12;;;;;;;14.18;13.32;;;4.70;99.90;;;;;;4229829;28;20059;-87
2022/11/15 04:46:32;;;;;;;15.23;14.32;;;4.70;99.90;;;;;;4234596;28;20049;-87
2022/11/15 04:48:53;;;;;;;15.77;14.82;;;4.70;99.90;;;;;;4233347;28;20035;-87
2022/11/15 04:51:19;;;;;;;14.60;13.60;;;4.80;99.90;;;;;;4232060;28;20043;-87
2022/11/15 04:53:38;;;;;;;15.32;14.15;;;4.70;99.90;;;;;;4230939;28;20066;-88
2022/11/15 04:55:58;;;;;;;15.32;14.30;;;4.70;99.90;;;;;;4231808;28;20080;-87
2022/11/15 04:58:18;;;;;;;15.32;14.20;;;4.80;99.90;;;;;;4229675;28;20043;-88
2022/11/15 05:00:39;;;;;;;14.05;13.25;;;4.70;99.90;;;;;;4219866;28;20051;-88
2022/11/15 05:05:37;;;;;;;13.65;12.80;;;4.80;99.90;;;;;;4227795;28;20088;-87
2022/11/15 05:07:57;;;;;;;12.93;12.23;;;4.80;99.90;;;;;;4230565;28;20039;-88
2022/11/15 05:10:17;;;;;;;15.18;14.10;;;4.90;99.90;;;;;;4228383;28;20051;-87
2022/11/15 05:12:37;;;;;;;14.98;13.98;;;4.90;99.90;;;;;;4226575;28;20039;-87
2022/11/15 05:14:57;;;;;;;14.10;13.25;;;4.90;99.90;;;;;;4209882;28;20087;-87
2022/11/15 05:17:17;;;;;;;15.30;13.88;;;4.90;99.90;;;;;;4231757;28;20251;-87
2022/11/15 05:19:38;;;;;;;14.77;13.88;;;5.00;99.90;;;;;;4228663;28;20046;-88
2022/11/15 05:21:57;;;;;;;13.35;12.68;;;4.90;99.90;;;;;;4226217;28;20085;-86
2022/11/15 05:24:17;;;;;;;12.93;11.95;;;5.00;99.90;;;;;;4223770;28;20122;-87
2022/11/15 05:26:37;;;;;;;14.88;13.63;;;5.00;99.90;;;;;;4229466;28;20051;-88
2022/11/15 05:28:58;;;;;;;12.30;11.65;;;5.00;99.90;;;;;;4232007;28;20369;-88
2022/11/15 05:31:18;;;;;;;14.55;13.40;;;5.00;99.90;;;;;;4231168;28;20046;-88
2022/11/15 05:33:42;;;;;;;14.20;13.48;;;5.10;99.90;;;;;;4234904;28;20385;-88
2022/11/15 05:36:07;;;;;;;14.00;13.15;;;5.10;99.90;;;;;;4230246;28;20079;-88
2022/11/15 05:38:28;;;;;;;13.82;12.88;;;5.10;99.90;;;;;;4227380;28;20377;-88
2022/11/15 05:40:48;;;;;;;13.05;12.25;;;5.10;99.90;;;;;;4231662;28;20042;-86
2022/11/15 05:43:08;;;;;;;13.60;12.75;;;5.00;99.90;;;;;;4230622;28;20332;-87
2022/11/15 05:45:29;;;;;;;14.43;13.48;;;5.00;99.90;;;;;;4229740;28;20400;-87
2022/11/15 05:47:51;;;;;;;14.00;13.20;;;4.90;99.90;;;;;;4228107;28;20073;-88
2022/11/15 05:50:17;;;;;;;14.65;13.68;;;4.90;99.90;;;;;;4230957;28;20068;-87
2022/11/15 05:52:38;;;;;;;13.82;12.95;;;4.90;99.90;;;;;;4237712;28;20257;-87
2022/11/15 05:54:59;;;;;;;15.55;14.35;;;4.90;99.90;;;;;;4231601;28;20054;-87
2022/11/15 05:57:19;;;;;;;13.40;12.50;;;4.90;99.90;;;;;;4229172;28;20401;-87
2022/11/15 05:59:40;;;;;;;13.05;12.38;;;4.90;99.90;;;;;;4225779;28;20046;-87
2022/11/15 06:02:00;;;;;;;13.18;12.45;;;5.00;99.90;;;;;;4229596;28;20036;-87
2022/11/15 06:04:19;;;;;;;15.70;14.63;;;5.00;99.90;;;;;;4228922;28;20051;-87
2022/11/15 06:06:39;;;;;;;13.68;12.93;;;5.00;99.90;;;;;;4227978;28;20058;-88
2022/11/15 06:08:59;;;;;;;15.55;14.43;;;5.00;99.90;;;;;;4226562;28;20047;-87
2022/11/15 06:11:18;;;;;;;13.20;12.45;;;5.00;99.90;;;;;;4224693;28;20047;-87
2022/11/15 06:13:38;;;;;;;14.38;13.52;;;5.00;99.90;;;;;;4224703;28;20070;-88
2022/11/15 06:15:58;;;;;;;17.63;15.57;;;5.00;99.90;;;;;;4211720;28;20063;-87
2022/11/15 06:18:18;;;;;;;17.77;16.17;;;5.10;99.90;;;;;;4232049;28;20234;-88
2022/11/15 06:20:38;;;;;;;15.68;14.52;;;5.10;99.90;;;;;;4229407;28;20062;-87
2022/11/15 06:22:59;;;;;;;17.88;16.00;;;5.20;99.90;;;;;;4228814;28;20101;-88
2022/11/15 06:25:19;;;;;;;15.60;14.38;;;5.20;99.90;;;;;;4232160;28;20081;-87
2022/11/15 06:27:40;;;;;;;17.30;15.95;;;5.20;99.90;;;;;;4230805;28;20219;-87
2022/11/15 06:29:59;;;;;;;16.63;15.25;;;5.30;99.90;;;;;;4225569;28;20080;-88
2022/11/15 06:32:19;;;;;;;19.58;17.77;;;5.30;99.90;;;;;;4223200;28;20081;-88
2022/11/15 06:34:39;;;;;;;17.23;15.73;;;5.40;99.90;;;;;;4230928;28;20043;-87
2022/11/15 06:36:58;;;;;;;16.92;15.43;;;5.40;99.90;;;;;;4229228;28;20046;-89
2022/11/15 06:39:18;;;;;;;19.17;17.58;;;5.30;99.90;;;;;;4229647;28;20116;-89
2022/11/15 06:41:37;;;;;;;19.77;17.98;;;5.30;99.90;;;;;;4228166;28;20059;-89
2022/11/15 06:43:57;;;;;;;16.67;15.40;;;5.30;99.90;;;;;;4227613;28;20043;-89
2022/11/15 06:46:17;;;;;;;17.60;15.98;;;5.30;99.90;;;;;;4229389;28;20097;-89
2022/11/15 06:48:37;;;;;;;18.42;17.13;;;5.20;99.90;;;;;;4217084;28;20103;-89
2022/11/15 06:50:59;;;;;;;18.70;17.05;;;5.20;99.90;;;;;;4227914;28;20047;-89
2022/11/15 06:53:19;;;;;;;18.83;17.42;;;5.20;99.90;;;;;;4234233;28;20389;-89
2022/11/15 06:55:39;;;;;;;18.33;16.95;;;5.20;99.90;;;;;;4224386;28;20111;-89
2022/11/15 06:57:58;;;;;;;19.67;17.80;;;5.20;99.90;;;;;;4229767;28;20347;-89
2022/11/15 07:00:20;;;;;;;18.23;16.52;;;5.20;99.90;;;;;;4226774;28;20051;-89
2022/11/15 07:02:40;;;;;;;18.38;16.88;;;5.20;99.90;;;;;;4228831;28;20054;-90
2022/11/15 07:04:59;;;;;;;15.77;14.68;;;5.30;99.90;;;;;;4226045;28;20138;-89
2022/11/15 07:07:19;;;;;;;15.18;14.07;;;5.30;99.90;;;;;;4209589;28;20147;-88
2022/11/15 07:09:39;;;;;;;15.25;14.10;;;5.30;99.90;;;;;;4214804;28;20350;-90
2022/11/15 07:11:59;;;;;;;14.65;13.82;;;5.30;99.90;;;;;;4228984;28;20043;-89
2022/11/15 07:14:25;;;;;;;14.32;13.10;;;5.40;99.90;;;;;;4225708;28;20246;-90
2022/11/15 07:16:45;;;;;;;14.50;13.70;;;5.40;99.90;;;;;;4232088;28;20062;-90
2022/11/15 07:19:05;;;;;;;13.80;12.70;;;5.50;99.90;;;;;;4231630;28;20050;-89
2022/11/15 07:21:25;;;;;;;15.68;14.48;;;5.50;99.90;;;;;;4230368;28;20142;-89
2022/11/15 07:23:47;;;;;;;16.92;15.57;;;5.60;99.90;;;;;;4232460;28;20046;-89
2022/11/15 07:26:07;;;;;;;15.20;13.93;;;5.60;99.90;;;;;;4225990;28;20368;-90
2022/11/15 07:28:28;;;;;;;16.30;14.95;;;5.60;99.90;;;;;;4224517;28;20043;-89
2022/11/15 07:30:47;;;;;;;18.15;16.58;;;5.70;99.90;;;;;;4226763;28;20051;-89
2022/11/15 07:33:07;;;;;;;21.63;19.58;;;5.70;99.90;;;;;;4232747;28;20115;-90
2022/11/15 07:35:29;;;;;;;32.05;25.42;;;5.70;99.90;;;;;;4230818;28;20070;-90
2022/11/15 07:38:01;;;;;;;37.05;27.60;;;5.80;99.90;;;;;;4226990;28;20038;-90
2022/11/15 07:40:21;;;;;;;27.98;21.60;;;5.80;99.90;;;;;;4236668;28;20123;-90
2022/11/15 07:42:53;;;;;;;21.80;19.08;;;5.80;99.90;;;;;;4230147;28;20039;-90
2022/11/15 07:45:12;;;;;;;22.50;20.23;;;5.80;99.90;;;;;;4227839;28;20081;-90
2022/11/15 07:47:32;;;;;;;24.50;20.95;;;5.90;99.90;;;;;;4231815;28;20081;-90
2022/11/15 07:49:52;;;;;;;25.65;22.90;;;5.90;99.90;;;;;;4228683;28;20050;-89
2022/11/15 07:52:12;;;;;;;19.73;17.83;;;6.00;99.90;;;;;;4228776;28;20046;-90
2022/11/15 07:54:32;;;;;;;16.83;15.50;;;6.00;99.90;;;;;;4232985;28;20290;-90
2022/11/15 07:56:52;;;;;;;14.75;13.85;;;6.10;99.90;;;;;;4218962;28;20050;-90
2022/11/15 07:59:11;;;;;;;17.20;16.20;;;6.10;99.90;;;;;;4219460;28;20120;-90
2022/11/15 08:01:31;;;;;;;16.58;15.60;;;6.20;99.90;;;;;;4230516;28;20051;-90
2022/11/15 08:03:51;;;;;;;16.27;14.68;;;6.30;99.90;;;;;;4229510;28;20062;-90
2022/11/15 08:06:11;;;;;;;14.48;13.68;;;6.30;99.90;;;;;;4227711;28;20327;-89
2022/11/15 08:08:30;;;;;;;18.67;17.17;;;6.30;99.90;;;;;;4235424;28;20269;-89
2022/11/15 08:10:51;;;;;;;19.08;17.02;;;6.40;99.90;;;;;;4232526;28;20055;-89
2022/11/15 08:13:12;;;;;;;18.48;16.63;;;6.40;99.90;;;;;;4220951;28;20055;-90
2022/11/15 08:15:34;;;;;;;16.95;15.68;;;6.40;99.90;;;;;;4226378;28;20084;-90
2022/11/15 08:18:00;;;;;;;18.88;17.13;;;6.40;99.90;;;;;;4232095;28;20144;-90
2022/11/15 08:20:20;;;;;;;21.52;19.58;;;6.40;99.90;;;;;;4230290;28;20285;-89
2022/11/15 08:22:39;;;;;;;23.45;21.02;;;6.50;99.90;;;;;;4229476;28;20039;-90
2022/11/15 08:24:59;;;;;;;24.88;22.40;;;6.50;99.90;;;;;;4229373;28;20251;-89
2022/11/15 08:27:18;;;;;;;37.25;31.08;;;6.50;99.90;;;;;;4228395;28;20077;-90
2022/11/15 08:29:39;;;;;;;34.63;28.02;;;6.50;99.90;;;;;;4218609;28;20043;-90
2022/11/15 08:31:58;;;;;;;30.38;25.80;;;6.50;99.90;;;;;;4230361;28;20046;-88
2022/11/15 08:34:18;;;;;;;25.70;23.17;;;6.60;99.90;;;;;;4226806;28;20055;-88
2022/11/15 08:36:38;;;;;;;23.98;21.55;;;6.60;99.90;;;;;;4232083;28;20072;-89
2022/11/15 08:39:05;;;;;;;20.88;18.98;;;6.70;99.90;;;;;;4228136;28;20377;-88
2022/11/15 08:41:31;;;;;;;27.52;24.27;;;6.80;99.90;;;;;;4228141;28;20055;-90
2022/11/15 08:43:50;;;;;;;36.45;30.90;;;6.90;99.90;;;;;;4230101;28;20081;-89
2022/11/15 08:46:13;;;;;;;24.77;22.27;;;6.90;99.90;;;;;;4234969;28;20069;-88
2022/11/15 08:48:32;;;;;;;22.83;20.55;;;6.90;99.90;;;;;;4230291;28;20078;-87
2022/11/15 08:50:56;;;;;;;24.42;22.10;;;6.90;99.90;;;;;;4229006;28;20047;-89
2022/11/15 08:53:17;;;;;;;22.90;20.52;;;7.00;99.90;;;;;;4232164;28;20051;-89
2022/11/15 08:55:37;;;;;;;23.95;21.45;;;7.00;99.90;;;;;;4236294;28;20512;-89
2022/11/15 08:57:58;;;;;;;19.25;17.55;;;7.10;99.90;;;;;;4235936;28;20051;-89
2022/11/15 09:00:19;;;;;;;19.13;17.30;;;7.10;99.90;;;;;;4227316;28;20063;-88
2022/11/15 09:02:40;;;;;;;17.92;16.42;;;7.10;99.90;;;;;;4232456;28;20050;-89
2022/11/15 09:05:00;;;;;;;20.42;17.83;;;7.10;99.90;;;;;;4232679;28;20055;-89
2022/11/15 09:07:20;;;;;;;16.45;15.10;;;7.20;99.90;;;;;;4232061;28;20778;-89
2022/11/15 09:09:40;;;;;;;17.38;15.85;;;7.20;99.90;;;;;;4226386;28;20128;-88
2022/11/15 09:12:00;;;;;;;30.35;27.15;;;7.10;99.90;;;;;;4217462;28;20116;-88
2022/11/15 09:14:22;;;;;;;20.38;18.60;;;7.20;99.90;;;;;;4231659;28;20051;-88
2022/11/15 09:16:41;;;;;;;19.27;17.50;;;7.30;99.90;;;;;;4227353;28;20043;-88
2022/11/15 09:19:01;;;;;;;14.13;13.02;;;7.40;99.90;;;;;;4226214;28;20100;-88
2022/11/15 09:21:21;;;;;;;14.55;12.85;;;7.40;99.90;;;;;;4229827;28;20047;-88
2022/11/15 09:23:41;;;;;;;21.58;19.45;;;7.40;99.90;;;;;;4230443;28;20046;-88
2022/11/15 09:26:03;;;;;;;21.70;18.98;;;7.40;99.90;;;;;;4236272;28;20050;-88
2022/11/15 09:28:23;;;;;;;29.20;23.20;;;7.30;99.90;;;;;;4233946;28;20077;-88
2022/11/15 09:30:43;;;;;;;57.60;43.05;;;7.30;99.90;;;;;;4227448;28;20130;-88
2022/11/15 09:33:11;;;;;;;28.08;24.58;;;7.30;99.90;;;;;;4231015;28;20038;-88
2022/11/15 09:35:31;;;;;;;42.92;33.15;;;7.20;99.90;;;;;;4229367;28;20042;-91
2022/11/15 09:37:51;;;;;;;23.92;21.02;;;7.30;99.90;;;;;;4229865;28;20131;-92
2022/11/15 09:40:20;;;;;;;19.73;17.90;;;7.40;99.90;;;;;;4228728;28;20039;-92
2022/11/15 09:42:40;;;;;;;17.30;15.75;;;7.40;99.90;;;;;;4229666;28;20066;-91
2022/11/15 09:45:31;;;;;;;17.25;15.43;;;7.40;99.90;;;;;;4219608;28;20047;-92
2022/11/15 09:48:09;;;;;;;22.48;19.65;;;7.40;99.90;;;;;;4229852;28;20227;-92
2022/11/15 09:50:36;;;;;;;27.20;23.23;;;7.40;99.90;;;;;;4230086;28;20039;-92
2022/11/15 09:52:55;;;;;;;21.52;19.25;;;7.40;99.90;;;;;;4228911;28;20106;-91
2022/11/15 09:55:21;;;;;;;25.02;20.67;;;7.50;99.90;;;;;;4228822;28;20078;-92
2022/11/15 09:58:22;;;;;;;23.83;16.75;;;7.50;99.90;;;;;;4230802;28;20035;-91
2022/11/15 10:00:48;;;;;;;41.17;26.90;;;7.60;99.90;;;;;;4162504;28;20084;-91
2022/11/15 10:03:12;;;;;;;42.05;28.67;;;7.60;99.90;;;;;;4165522;28;20126;-91
2022/11/15 10:05:40;;;;;;;35.92;23.58;;;7.60;99.90;;;;;;4163531;28;20206;-89
2022/11/15 10:08:03;;;;;;;25.88;21.83;;;7.70;99.90;;;;;;4163285;28;20075;-91
2022/11/15 10:10:26;;;;;;;23.50;19.23;;;7.80;99.90;;;;;;4166521;28;20426;-91
2022/11/15 10:12:48;;;;;;;17.15;15.63;;;7.80;99.90;;;;;;4159784;28;20445;-92
2022/11/15 10:15:15;;;;;;;17.58;15.88;;;7.80;99.90;;;;;;4167169;28;20048;-91
2022/11/15 10:17:57;;;;;;;17.27;15.77;;;7.90;99.90;;;;;;4160855;28;20415;-91
2022/11/15 10:20:26;;;;;;;20.15;17.98;;;7.90;99.90;;;;;;4163436;28;20048;-91
2022/11/15 10:22:50;;;;;;;17.00;15.52;;;8.00;99.90;;;;;;4156493;28;20133;-90
2022/11/15 10:25:19;;;;;;;16.10;14.68;;;8.00;99.90;;;;;;4158238;28;20080;-89
2022/11/15 10:27:42;;;;;;;14.60;13.35;;;8.00;99.90;;;;;;4162020;28;20069;-91
2022/11/15 10:30:04;;;;;;;12.20;11.55;;;8.10;99.90;;;;;;4161934;28;20084;-91
2022/11/15 10:32:25;;;;;;;28.02;24.25;;;8.10;99.90;;;;;;4162464;28;20107;-91
2022/11/15 10:34:46;;;;;;;18.83;17.20;;;8.10;99.90;;;;;;4203445;28;20085;-91
2022/11/15 10:37:06;;;;;;;18.20;16.50;;;8.20;99.90;;;;;;4233693;28;20054;-91
2022/11/15 10:39:27;;;;;;;18.15;16.55;;;8.20;99.90;;;;;;4230401;28;20125;-91
2022/11/15 10:41:46;;;;;;;23.98;20.30;;;8.10;99.90;;;;;;4231535;28;20043;-92
2022/11/15 10:44:18;;;;;;;20.35;18.42;;;8.10;99.90;;;;;;4220723;28;20367;-92
2022/11/15 10:46:41;;;;;;;18.65;16.73;;;8.10;99.90;;;;;;4239348;28;20042;-91
2022/11/15 10:49:17;;;;;;;14.55;13.50;;;8.10;99.90;;;;;;4234180;28;20108;-92
2022/11/15 10:51:46;;;;;;;20.05;18.23;;;8.00;99.90;;;;;;4212807;28;20056;-91
2022/11/15 10:54:10;;;;;;;24.67;21.80;;;8.10;99.90;;;;;;4229132;28;20054;-93
2022/11/15 10:56:35;;;;;;;23.33;20.90;;;8.10;99.90;;;;;;4232870;28;20043;-93
2022/11/15 10:58:56;;;;;;;21.17;19.20;;;8.10;99.90;;;;;;4222671;28;20422;-92
2022/11/15 11:01:19;;;;;;;26.65;22.02;;;8.10;99.90;;;;;;4217242;28;20070;-91
2022/11/15 11:03:40;;;;;;;;;;;8.10;99.90;;;;;;4230473;28;20038;-90
2022/11/15 11:06:07;;;;;;;27.40;21.55;;;8.10;99.90;;;;;;4223203;28;19958;-90
2022/11/15 11:08:27;;;;;;;21.45;18.15;;;8.10;99.90;;;;;;4227930;28;20039;-91
2022/11/15 11:10:58;;;;;;;20.27;17.90;;;8.10;99.90;;;;;;4236194;28;20042;-91
2022/11/15 11:13:30;;;;;;;19.30;17.50;;;8.10;99.90;;;;;;4227204;28;20078;-90
2022/11/15 11:15:54;;;;;;;19.50;17.80;;;8.00;99.90;;;;;;4219820;28;20066;-91
2022/11/15 11:18:39;;;;;;;18.33;16.65;;;8.00;99.90;;;;;;4230544;28;20385;-91
2022/11/15 11:21:08;;;;;;;17.10;15.50;;;8.20;99.90;;;;;;4231515;28;20042;-91
2022/11/15 11:23:55;;;;;;;18.80;17.05;;;8.20;99.90;;;;;;4233261;28;20070;-90
2022/11/15 11:26:27;;;;;;;18.10;16.45;;;8.00;99.90;;;;;;4230970;28;20072;-90
2022/11/15 11:29:14;;;;;;;14.88;13.93;;;8.20;99.90;;;;;;4228284;28;20042;-91
2022/11/15 11:32:27;;;;;;;19.85;18.05;;;8.10;99.90;;;;;;4233202;28;20058;-91
2022/11/15 11:35:17;;;;;;;26.95;24.15;;;8.20;99.90;;;;;;4183272;28;20075;-86
2022/11/15 11:37:45;;;;;;;28.15;24.95;;;8.30;99.90;;;;;;4227028;28;20043;-86
2022/11/15 11:40:24;;;;;;;42.08;33.90;;;8.30;99.90;;;;;;4230235;28;20107;-86
2022/11/15 11:43:01;;;;;;;49.67;37.33;;;8.30;99.90;;;;;;4224259;28;20047;-87
2022/11/15 11:45:36;;;;;;;46.40;36.10;;;8.30;99.90;;;;;;4220883;28;20382;-86
2022/11/15 11:48:25;;;;;;;35.72;29.20;;;8.40;99.90;;;;;;4217678;28;20058;-86
2022/11/15 11:50:46;;;;;;;36.20;30.25;;;8.30;99.90;;;;;;4232801;28;20053;-86
2022/11/15 11:53:15;;;;;;;35.45;31.08;;;8.30;99.90;;;;;;4219187;28;20119;-86
2022/11/15 11:55:43;;;;;;;34.33;30.35;;;8.30;99.90;;;;;;4225617;28;20083;-86
2022/11/15 11:58:13;;;;;;;37.83;32.17;;;8.30;99.90;;;;;;4236410;28;20038;-87
2022/11/15 12:00:38;;;;;;;44.15;36.53;;;8.30;99.90;;;;;;4233491;28;20051;-87
2022/11/15 12:03:19;;;;;;;34.38;30.65;;;8.30;99.90;;;;;;4231978;28;20074;-87
2022/11/15 12:05:57;;;;;;;40.55;31.98;;;8.30;99.90;;;;;;4231039;28;20090;-86
2022/11/15 12:08:33;;;;;;;38.88;32.35;;;8.30;99.90;;;;;;4223559;28;20108;-87
2022/11/15 12:11:03;;;;;;;33.28;29.90;;;8.30;99.90;;;;;;4230905;28;20345;-86
2022/11/15 12:13:26;;;;;;;32.72;29.02;;;8.30;99.90;;;;;;4225182;28;20093;-86
2022/11/15 12:15:53;;;;;;;39.42;31.02;;;8.30;99.90;;;;;;4233135;28;20054;-87
2022/11/15 12:18:15;;;;;;;46.35;34.88;;;8.30;99.90;;;;;;4230849;28;20132;-87
2022/11/15 12:20:40;;;;;;;36.40;28.83;;;8.30;99.90;;;;;;4230864;28;20085;-87
2022/11/15 12:23:07;;;;;;;52.30;43.17;;;8.20;99.90;;;;;;4228353;28;20227;-87
2022/11/15 12:25:44;;;;;;;54.13;45.85;;;8.20;99.90;;;;;;4233465;28;20076;-87
2022/11/15 12:28:11;;;;;;;48.33;39.10;;;8.20;99.90;;;;;;4228722;28;20034;-87
2022/11/15 12:31:10;;;;;;;48.47;36.78;;;8.30;99.90;;;;;;4233323;28;20039;-87
2022/11/15 12:33:33;;;;;;;45.08;38.25;;;8.20;99.90;;;;;;4232588;28;20050;-87